Time;durP1;ratioP1;P1;durP2;ratioP2;P2;SDS_P1;SDS_P2;PMS_P1;PMS_P2;Temp;Humidity;BMP_temperature;BMP_pressure;BME280_temperature;BME280_humidity;BME280_pressure;Samples;Min_cycle;Max_cycle;Signal;HPM_P1;HPM_P2
2021/05/03 00:00:25;;;;;;;1.13;1.02;;;;;;;;;;5070167;28;20029;-77
2021/05/03 00:02:51;;;;;;;0.98;0.98;;;;;;;;;;5070039;28;20560;-77
2021/05/03 00:05:22;;;;;;;0.70;0.70;;;;;;;;;;5070606;28;20522;-77
2021/05/03 00:07:48;;;;;;;1.00;1.00;;;;;;;;;;5052881;28;20025;-77
2021/05/03 00:10:14;;;;;;;2.38;1.55;;;;;;;;;;5050171;28;20021;-77
2021/05/03 00:12:41;;;;;;;0.85;0.85;;;;;;;;;;5050508;28;20063;-77
2021/05/03 00:15:08;;;;;;;0.80;0.80;;;;;;;;;;5050870;28;20036;-77
2021/05/03 00:17:34;;;;;;;1.15;1.05;;;;;;;;;;5050693;28;20629;-77
2021/05/03 00:20:00;;;;;;;0.93;0.82;;;;;;;;;;5050260;28;20025;-77
2021/05/03 00:22:26;;;;;;;1.42;1.00;;;;;;;;;;5049988;28;20094;-77
2021/05/03 00:24:52;;;;;;;1.45;1.35;;;;;;;;;;5050234;28;20045;-77
2021/05/03 00:27:18;;;;;;;0.90;0.90;;;;;;;;;;5050662;28;20029;-77
2021/05/03 00:29:44;;;;;;;1.00;0.90;;;;;;;;;;5049747;28;20029;-77
2021/05/03 00:32:10;;;;;;;0.73;0.73;;;;;;;;;;5050057;28;20025;-77
2021/05/03 00:34:36;;;;;;;1.30;1.20;;;;;;;;;;5049826;28;20391;-77
2021/05/03 00:37:02;;;;;;;1.00;0.63;;;;;;;;;;5048885;28;20029;-77
2021/05/03 00:39:28;;;;;;;2.30;1.00;;;;;;;;;;5049671;28;20029;-77
2021/05/03 00:41:54;;;;;;;1.63;0.88;;;;;;;;;;5049138;28;20122;-78
2021/05/03 00:44:22;;;;;;;1.02;0.90;;;;;;;;;;5049405;28;20510;-77
2021/05/03 00:46:49;;;;;;;1.02;0.93;;;;;;;;;;5049677;28;20080;-77
2021/05/03 00:49:15;;;;;;;1.00;1.00;;;;;;;;;;5049640;28;20028;-77
2021/05/03 00:51:41;;;;;;;3.63;0.93;;;;;;;;;;5048902;28;20031;-77
2021/05/03 00:54:07;;;;;;;1.13;0.98;;;;;;;;;;5049704;28;20052;-77
2021/05/03 00:56:33;;;;;;;1.02;0.93;;;;;;;;;;5048990;28;20025;-77
2021/05/03 00:58:59;;;;;;;1.15;1.05;;;;;;;;;;5049510;28;20037;-77
2021/05/03 01:01:26;;;;;;;1.02;0.93;;;;;;;;;;5048860;28;20032;-77
2021/05/03 01:03:52;;;;;;;0.88;0.77;;;;;;;;;;5049453;28;20040;-77
2021/05/03 01:06:18;;;;;;;1.60;0.90;;;;;;;;;;5048109;28;20402;-78
2021/05/03 01:08:45;;;;;;;1.30;1.20;;;;;;;;;;5048879;28;20060;-77
2021/05/03 01:11:11;;;;;;;0.98;0.90;;;;;;;;;;5048974;28;20029;-77
2021/05/03 01:13:37;;;;;;;0.90;0.90;;;;;;;;;;5048546;28;20036;-76
2021/05/03 01:16:03;;;;;;;0.73;0.73;;;;;;;;;;5049528;28;20029;-77
2021/05/03 01:18:34;;;;;;;1.85;0.95;;;;;;;;;;5049678;28;20056;-77
2021/05/03 01:21:00;;;;;;;1.20;1.02;;;;;;;;;;5048564;28;20029;-78
2021/05/03 01:23:26;;;;;;;1.58;0.90;;;;;;;;;;5048903;28;20025;-77
2021/05/03 01:25:52;;;;;;;0.80;0.80;;;;;;;;;;5049196;28;20492;-77
2021/05/03 01:28:19;;;;;;;1.48;0.93;;;;;;;;;;5049627;28;20391;-77
2021/05/03 01:30:46;;;;;;;0.70;0.70;;;;;;;;;;5048309;28;20021;-77
2021/05/03 01:33:13;;;;;;;0.73;0.73;;;;;;;;;;5048797;28;20028;-77
2021/05/03 01:35:39;;;;;;;2.15;0.90;;;;;;;;;;5047921;28;20029;-77
2021/05/03 01:38:07;;;;;;;2.40;1.33;;;;;;;;;;5048578;28;20025;-77
2021/05/03 01:40:34;;;;;;;0.95;0.90;;;;;;;;;;5048188;28;20494;-78
2021/05/03 01:43:10;;;;;;;0.93;0.88;;;;;;;;;;5048440;28;20121;-78
2021/05/03 01:45:37;;;;;;;0.93;0.93;;;;;;;;;;5048918;28;20044;-77
2021/05/03 01:48:03;;;;;;;1.10;1.10;;;;;;;;;;5049036;28;20503;-77
2021/05/03 01:50:29;;;;;;;0.70;0.70;;;;;;;;;;5047840;28;20036;-77
2021/05/03 01:52:56;;;;;;;0.98;0.93;;;;;;;;;;5048652;28;20033;-77
2021/05/03 01:55:22;;;;;;;0.90;0.90;;;;;;;;;;5048059;28;20104;-77
2021/05/03 01:57:48;;;;;;;2.55;1.13;;;;;;;;;;5048005;28;20106;-77
2021/05/03 02:00:15;;;;;;;0.95;0.88;;;;;;;;;;5048106;28;20029;-77
2021/05/03 02:02:45;;;;;;;1.63;1.25;;;;;;;;;;5048146;28;20127;-77
2021/05/03 02:05:16;;;;;;;2.58;1.45;;;;;;;;;;5048496;28;20390;-77
2021/05/03 02:07:42;;;;;;;1.13;1.05;;;;;;;;;;5047148;28;20035;-77
2021/05/03 02:10:08;;;;;;;0.90;0.90;;;;;;;;;;5047288;28;20056;-77
2021/05/03 02:12:37;;;;;;;1.75;1.20;;;;;;;;;;5048130;28;20545;-77
2021/05/03 02:15:03;;;;;;;1.13;1.00;;;;;;;;;;5049073;28;20033;-78
2021/05/03 02:17:29;;;;;;;1.20;1.15;;;;;;;;;;5048735;28;20291;-77
2021/05/03 02:19:55;;;;;;;1.20;1.10;;;;;;;;;;5047810;28;20036;-77
2021/05/03 02:22:21;;;;;;;2.55;2.10;;;;;;;;;;5048350;28;20033;-77
2021/05/03 02:24:47;;;;;;;1.35;0.82;;;;;;;;;;5048803;28;20100;-77
2021/05/03 02:27:13;;;;;;;1.13;0.75;;;;;;;;;;5048621;28;20028;-77
2021/05/03 02:29:39;;;;;;;0.93;0.90;;;;;;;;;;5047869;28;20029;-77
2021/05/03 02:32:05;;;;;;;1.05;0.95;;;;;;;;;;5048122;28;20032;-77
2021/05/03 02:34:31;;;;;;;0.85;0.80;;;;;;;;;;5047741;28;20036;-77
2021/05/03 02:36:57;;;;;;;1.08;0.80;;;;;;;;;;5046895;28;20033;-77
2021/05/03 02:39:23;;;;;;;0.80;0.80;;;;;;;;;;5048309;28;20021;-77
2021/05/03 02:41:50;;;;;;;0.65;0.65;;;;;;;;;;5047343;28;20400;-77
2021/05/03 02:44:16;;;;;;;1.45;0.77;;;;;;;;;;5048168;28;20040;-77
2021/05/03 02:46:42;;;;;;;0.90;0.90;;;;;;;;;;5047564;28;20104;-77
2021/05/03 02:49:08;;;;;;;0.88;0.68;;;;;;;;;;5047991;28;20373;-77
2021/05/03 02:51:34;;;;;;;0.73;0.73;;;;;;;;;;5047496;28;20390;-77
2021/05/03 02:54:00;;;;;;;0.98;0.88;;;;;;;;;;5047901;28;20044;-77
2021/05/03 02:56:26;;;;;;;1.10;0.90;;;;;;;;;;5048092;28;20052;-77
2021/05/03 02:58:52;;;;;;;1.13;0.85;;;;;;;;;;5047632;28;20068;-77
2021/05/03 03:01:18;;;;;;;1.20;0.70;;;;;;;;;;5047405;28;20044;-77
2021/05/03 03:03:44;;;;;;;1.13;1.00;;;;;;;;;;5048009;28;20033;-77
2021/05/03 03:06:10;;;;;;;0.90;0.90;;;;;;;;;;5046197;28;20457;-77
2021/05/03 03:08:36;;;;;;;0.90;0.90;;;;;;;;;;5051419;28;20028;-77
2021/05/03 03:11:02;;;;;;;1.17;1.08;;;;;;;;;;5050726;28;20041;-77
2021/05/03 03:13:30;;;;;;;0.88;0.88;;;;;;;;;;5051029;28;20036;-77
2021/05/03 03:15:56;;;;;;;0.50;0.50;;;;;;;;;;5051378;28;20029;-77
2021/05/03 03:18:22;;;;;;;0.75;0.75;;;;;;;;;;5051865;28;20446;-77
2021/05/03 03:20:48;;;;;;;0.98;0.93;;;;;;;;;;5050659;28;20114;-77
2021/05/03 03:23:14;;;;;;;0.90;0.80;;;;;;;;;;5051241;28;20426;-77
2021/05/03 03:25:40;;;;;;;1.92;1.40;;;;;;;;;;5051193;28;20055;-77
2021/05/03 03:28:08;;;;;;;0.77;0.77;;;;;;;;;;5051526;28;20017;-77
2021/05/03 03:30:34;;;;;;;0.70;0.50;;;;;;;;;;5051220;28;20090;-77
2021/05/03 03:33:00;;;;;;;1.20;1.10;;;;;;;;;;5051124;28;20021;-77
2021/05/03 03:35:28;;;;;;;1.63;1.35;;;;;;;;;;5050752;28;20506;-77
2021/05/03 03:37:54;;;;;;;0.80;0.80;;;;;;;;;;5050359;28;20025;-77
2021/05/03 03:40:21;;;;;;;0.88;0.80;;;;;;;;;;5051008;28;20484;-77
2021/05/03 03:42:47;;;;;;;0.88;0.88;;;;;;;;;;5049966;28;20052;-77
2021/05/03 03:45:14;;;;;;;1.30;1.20;;;;;;;;;;5050726;28;20036;-77
2021/05/03 03:47:40;;;;;;;0.63;0.63;;;;;;;;;;5050665;28;20155;-77
2021/05/03 03:50:06;;;;;;;0.68;0.68;;;;;;;;;;5050357;28;20387;-77
2021/05/03 03:52:33;;;;;;;2.13;1.15;;;;;;;;;;5050834;28;20294;-77
2021/05/03 03:54:59;;;;;;;0.70;0.70;;;;;;;;;;5050702;28;20108;-77
2021/05/03 03:57:25;;;;;;;0.60;0.60;;;;;;;;;;5050801;28;20056;-77
2021/05/03 03:59:56;;;;;;;0.80;0.73;;;;;;;;;;5049683;28;20514;-77
2021/05/03 04:02:22;;;;;;;1.40;1.30;;;;;;;;;;5049944;28;20498;-78
2021/05/03 04:06:05;;;;;;;1.55;1.02;;;;;;;;;;5050209;28;20048;-77
2021/05/03 04:08:07;;;;;;;1.20;1.10;;;;;;;;;;5031170;28;20056;-77
2021/05/03 04:21:07;;;;;;;1.30;0.68;;;;;;;;;;5049695;28;20051;-77
2021/05/03 04:23:50;;;;;;;3.72;1.05;;;;;;;;;;5050184;28;20037;-78
2021/05/03 04:26:17;;;;;;;0.68;0.68;;;;;;;;;;5050342;28;20025;-77
2021/05/03 04:28:47;;;;;;;0.80;0.80;;;;;;;;;;5050229;28;20476;-77
2021/05/03 04:31:13;;;;;;;0.55;0.55;;;;;;;;;;5050218;28;20407;-77
2021/05/03 04:33:39;;;;;;;1.20;1.13;;;;;;;;;;5049611;28;20032;-78
2021/05/03 04:36:06;;;;;;;0.80;0.80;;;;;;;;;;5048396;28;20086;-77
2021/05/03 04:38:32;;;;;;;0.50;0.50;;;;;;;;;;5050264;28;20017;-77
2021/05/03 04:40:58;;;;;;;1.00;0.90;;;;;;;;;;5049141;28;20029;-77
2021/05/03 04:43:24;;;;;;;0.60;0.60;;;;;;;;;;5049291;28;20036;-77
2021/05/03 04:45:50;;;;;;;0.80;0.80;;;;;;;;;;5049550;28;20520;-77
2021/05/03 04:48:17;;;;;;;1.40;1.30;;;;;;;;;;5049665;28;20708;-77
2021/05/03 04:50:43;;;;;;;0.55;0.55;;;;;;;;;;5048776;28;20115;-77
2021/05/03 04:53:10;;;;;;;0.82;0.82;;;;;;;;;;5049112;28;20396;-78
2021/05/03 04:55:36;;;;;;;0.80;0.80;;;;;;;;;;5049702;28;20040;-77
2021/05/03 04:58:02;;;;;;;1.27;0.80;;;;;;;;;;5049427;28;20535;-77
2021/05/03 05:00:29;;;;;;;0.98;0.98;;;;;;;;;;5049080;28;20028;-77
2021/05/03 05:02:55;;;;;;;1.02;0.80;;;;;;;;;;5048842;28;20081;-77
2021/05/03 05:05:21;;;;;;;0.50;0.50;;;;;;;;;;5049400;28;20468;-77
2021/05/03 05:07:47;;;;;;;1.00;0.90;;;;;;;;;;5048181;28;20403;-77
2021/05/03 05:10:14;;;;;;;1.23;1.13;;;;;;;;;;5048816;28;20036;-77
2021/05/03 05:12:40;;;;;;;1.15;1.08;;;;;;;;;;5049094;28;20029;-77
2021/05/03 05:15:06;;;;;;;0.68;0.68;;;;;;;;;;5049131;28;20032;-77
2021/05/03 05:17:33;;;;;;;1.08;0.77;;;;;;;;;;5049390;28;20113;-77
2021/05/03 05:19:59;;;;;;;0.82;0.82;;;;;;;;;;5048185;28;20132;-77
2021/05/03 05:22:25;;;;;;;1.05;0.88;;;;;;;;;;5049028;28;20033;-77
2021/05/03 05:24:52;;;;;;;2.45;0.93;;;;;;;;;;5049089;28;20078;-77
2021/05/03 05:27:18;;;;;;;1.38;1.30;;;;;;;;;;5049348;28;20021;-77
2021/05/03 05:29:44;;;;;;;0.63;0.63;;;;;;;;;;5048435;28;20051;-77
2021/05/03 05:32:10;;;;;;;0.88;0.85;;;;;;;;;;5049059;28;20028;-77
2021/05/03 05:34:36;;;;;;;0.77;0.77;;;;;;;;;;5048834;28;20032;-77
2021/05/03 05:37:02;;;;;;;1.85;1.27;;;;;;;;;;5047730;28;20085;-77
2021/05/03 05:39:28;;;;;;;0.60;0.60;;;;;;;;;;5048514;28;20092;-77
2021/05/03 05:41:54;;;;;;;1.10;1.00;;;;;;;;;;5048214;28;20116;-77
2021/05/03 05:44:21;;;;;;;1.33;0.73;;;;;;;;;;5048624;28;20035;-77
2021/05/03 05:46:48;;;;;;;1.13;0.80;;;;;;;;;;5048062;28;20025;-77
2021/05/03 05:49:14;;;;;;;1.02;1.02;;;;;;;;;;5043012;28;20017;-77
2021/05/03 05:51:40;;;;;;;0.93;0.90;;;;;;;;;;5047505;28;20021;-77
2021/05/03 05:54:08;;;;;;;1.00;1.00;;;;;;;;;;5047794;28;20029;-77
2021/05/03 05:56:34;;;;;;;1.05;0.95;;;;;;;;;;5039985;28;20044;-77
2021/05/03 05:59:00;;;;;;;1.38;1.00;;;;;;;;;;5046850;28;20100;-77
2021/05/03 06:01:27;;;;;;;5.13;2.25;;;;;;;;;;5048056;28;20041;-77
2021/05/03 06:03:53;;;;;;;1.48;1.33;;;;;;;;;;5044147;28;20361;-77
2021/05/03 06:06:20;;;;;;;1.60;1.40;;;;;;;;;;5044136;28;20090;-80
2021/05/03 06:08:46;;;;;;;1.20;1.10;;;;;;;;;;5046235;28;20207;-81
2021/05/03 06:11:15;;;;;;;1.27;1.17;;;;;;;;;;5048445;28;20108;-81
2021/05/03 06:13:42;;;;;;;2.00;1.45;;;;;;;;;;5047476;28;20029;-80
2021/05/03 06:16:08;;;;;;;2.75;1.58;;;;;;;;;;5048805;28;20017;-81
2021/05/03 06:18:34;;;;;;;2.05;1.00;;;;;;;;;;5049208;28;20068;-80
2021/05/03 06:21:00;;;;;;;2.22;1.25;;;;;;;;;;5049141;28;20506;-81
2021/05/03 06:23:26;;;;;;;1.52;1.00;;;;;;;;;;5049430;28;20044;-81
2021/05/03 06:25:53;;;;;;;1.92;1.08;;;;;;;;;;5049930;28;20118;-80
2021/05/03 06:28:19;;;;;;;2.33;1.60;;;;;;;;;;5044982;28;20037;-81
2021/05/03 06:30:46;;;;;;;3.83;2.60;;;;;;;;;;5042795;28;20027;-80
2021/05/03 06:33:12;;;;;;;2.47;1.83;;;;;;;;;;5046085;28;20029;-78
2021/05/03 06:35:38;;;;;;;2.45;1.92;;;;;;;;;;5046738;28;20033;-78
2021/05/03 06:38:06;;;;;;;6.43;2.45;;;;;;;;;;5047364;28;20091;-79
2021/05/03 06:40:32;;;;;;;1.85;1.75;;;;;;;;;;5041293;28;20025;-79
2021/05/03 06:42:58;;;;;;;6.72;2.83;;;;;;;;;;5036302;28;20064;-81
2021/05/03 06:45:24;;;;;;;3.20;1.75;;;;;;;;;;5052898;28;20427;-81
2021/05/03 06:47:51;;;;;;;3.08;2.22;;;;;;;;;;5051930;28;20032;-80
2021/05/03 06:50:17;;;;;;;2.83;1.20;;;;;;;;;;5052237;28;20476;-80
2021/05/03 06:52:44;;;;;;;3.75;1.60;;;;;;;;;;5050360;28;20162;-79
2021/05/03 06:55:11;;;;;;;3.67;2.63;;;;;;;;;;5052746;28;20132;-80
2021/05/03 06:57:37;;;;;;;1.95;1.75;;;;;;;;;;5050623;28;20052;-80
2021/05/03 07:00:07;;;;;;;1.77;1.63;;;;;;;;;;5047107;28;20029;-80
2021/05/03 07:02:35;;;;;;;2.42;2.10;;;;;;;;;;5045787;28;20045;-79
2021/05/03 07:05:01;;;;;;;2.85;2.22;;;;;;;;;;5044799;28;20037;-80
2021/05/03 07:07:27;;;;;;;4.20;2.35;;;;;;;;;;5044142;28;20043;-79
2021/05/03 07:09:53;;;;;;;2.65;2.20;;;;;;;;;;5044663;28;21374;-80
2021/05/03 07:12:21;;;;;;;3.08;1.80;;;;;;;;;;5027608;28;20417;-79
2021/05/03 07:14:47;;;;;;;1.80;1.58;;;;;;;;;;5044951;28;20554;-81
2021/05/03 07:17:13;;;;;;;8.75;2.55;;;;;;;;;;5043921;28;20457;-78
2021/05/03 07:19:40;;;;;;;2.95;1.83;;;;;;;;;;5045688;28;20036;-80
2021/05/03 07:22:06;;;;;;;3.40;1.98;;;;;;;;;;5045664;28;20108;-79
2021/05/03 07:24:33;;;;;;;3.20;2.35;;;;;;;;;;5052224;28;20029;-79
2021/05/03 07:26:59;;;;;;;2.00;1.55;;;;;;;;;;5058255;28;20059;-79
2021/05/03 07:29:25;;;;;;;3.63;2.40;;;;;;;;;;5050906;28;20115;-80
2021/05/03 07:31:51;;;;;;;5.30;2.30;;;;;;;;;;5048728;28;20013;-83
2021/05/03 07:34:18;;;;;;;3.40;2.13;;;;;;;;;;5050765;28;20027;-83
2021/05/03 07:36:44;;;;;;;3.95;2.05;;;;;;;;;;5047882;28;20147;-83
2021/05/03 07:39:10;;;;;;;4.53;2.40;;;;;;;;;;5050998;28;20025;-83
2021/05/03 07:41:37;;;;;;;2.45;1.83;;;;;;;;;;5040408;28;20078;-81
2021/05/03 07:44:04;;;;;;;2.92;1.77;;;;;;;;;;5046205;28;20558;-82
2021/05/03 07:46:30;;;;;;;2.50;1.85;;;;;;;;;;5048878;28;20099;-82
2021/05/03 07:48:58;;;;;;;3.47;2.50;;;;;;;;;;5050852;28;20028;-83
2021/05/03 07:51:24;;;;;;;8.52;2.85;;;;;;;;;;5050042;28;20039;-83
2021/05/03 07:53:51;;;;;;;3.65;1.75;;;;;;;;;;5049301;28;20116;-82
2021/05/03 07:56:17;;;;;;;1.77;1.67;;;;;;;;;;5048761;28;20025;-80
2021/05/03 07:58:44;;;;;;;2.97;1.98;;;;;;;;;;5046850;28;20064;-82
2021/05/03 08:01:10;;;;;;;8.50;2.85;;;;;;;;;;5047525;28;20291;-81
2021/05/03 08:03:38;;;;;;;3.70;2.38;;;;;;;;;;5050440;28;20384;-83
2021/05/03 08:06:05;;;;;;;4.80;2.25;;;;;;;;;;5050150;28;20032;-84
2021/05/03 08:08:31;;;;;;;6.35;2.75;;;;;;;;;;5049576;28;20442;-84
2021/05/03 08:10:57;;;;;;;3.22;2.70;;;;;;;;;;5049304;28;20040;-83
2021/05/03 08:13:24;;;;;;;3.83;2.60;;;;;;;;;;5050313;28;20032;-84
2021/05/03 08:15:52;;;;;;;4.13;2.72;;;;;;;;;;5041642;28;20055;-83
2021/05/03 08:18:18;;;;;;;13.27;3.83;;;;;;;;;;5042342;28;20032;-83
2021/05/03 08:20:44;;;;;;;16.13;4.03;;;;;;;;;;5043793;28;20036;-82
2021/05/03 08:23:12;;;;;;;6.60;3.40;;;;;;;;;;5025003;28;20037;-83
2021/05/03 08:25:38;;;;;;;5.68;3.20;;;;;;;;;;5057929;28;20048;-83
2021/05/03 08:28:04;;;;;;;10.20;4.13;;;;;;;;;;5057378;28;20039;-83
2021/05/03 08:30:30;;;;;;;5.10;2.67;;;;;;;;;;5044821;28;20032;-80
2021/05/03 08:32:56;;;;;;;4.15;3.45;;;;;;;;;;5041013;28;20113;-81
2021/05/03 08:35:22;;;;;;;4.32;3.53;;;;;;;;;;5038914;28;20439;-81
2021/05/03 08:37:49;;;;;;;3.72;2.72;;;;;;;;;;5042549;28;20024;-83
2021/05/03 08:40:15;;;;;;;4.63;2.90;;;;;;;;;;5042067;28;20021;-79
2021/05/03 08:42:43;;;;;;;2.50;2.30;;;;;;;;;;5043254;28;20045;-82
2021/05/03 08:45:10;;;;;;;4.20;3.42;;;;;;;;;;5042314;28;20125;-81
2021/05/03 08:47:39;;;;;;;4.28;2.60;;;;;;;;;;5041479;28;20035;-82
2021/05/03 08:50:15;;;;;;;4.43;2.83;;;;;;;;;;5043492;28;20033;-83
2021/05/03 08:52:45;;;;;;;10.15;6.55;;;;;;;;;;5042597;28;20083;-80
2021/05/03 08:55:12;;;;;;;11.88;8.95;;;;;;;;;;5043485;28;20025;-80
2021/05/03 08:57:38;;;;;;;11.43;6.78;;;;;;;;;;5042279;28;20537;-82
2021/05/03 09:00:05;;;;;;;6.45;3.95;;;;;;;;;;5043257;28;20205;-82
2021/05/03 09:02:33;;;;;;;9.13;4.68;;;;;;;;;;5041252;28;20048;-82
2021/05/03 09:04:59;;;;;;;4.35;3.80;;;;;;;;;;5043033;28;20471;-81
2021/05/03 09:07:25;;;;;;;3.53;2.97;;;;;;;;;;5040520;28;20712;-81
2021/05/03 09:09:52;;;;;;;4.68;3.00;;;;;;;;;;5042708;28;20021;-80
2021/05/03 09:12:19;;;;;;;4.15;3.75;;;;;;;;;;5044725;28;20075;-84
2021/05/03 09:14:56;;;;;;;7.47;4.00;;;;;;;;;;5049703;28;20037;-81
2021/05/03 09:17:22;;;;;;;12.05;2.83;;;;;;;;;;5048675;28;20028;-84
2021/05/03 09:19:49;;;;;;;3.05;2.75;;;;;;;;;;5030506;28;20040;-81
2021/05/03 09:22:24;;;;;;;2.60;2.40;;;;;;;;;;5047270;28;20104;-81
2021/05/03 09:24:51;;;;;;;6.22;3.05;;;;;;;;;;5030168;28;20056;-81
2021/05/03 09:27:20;;;;;;;3.10;2.63;;;;;;;;;;5062786;28;20017;-81
2021/05/03 09:29:46;;;;;;;4.82;2.65;;;;;;;;;;5049418;28;20032;-81
2021/05/03 09:32:14;;;;;;;4.93;1.88;;;;;;;;;;5047847;28;20029;-80
2021/05/03 09:34:46;;;;;;;3.63;2.42;;;;;;;;;;5049334;28;20100;-81
2021/05/03 09:37:20;;;;;;;2.22;1.95;;;;;;;;;;5048430;28;20101;-80
2021/05/03 09:39:59;;;;;;;2.20;1.80;;;;;;;;;;5048668;28;20032;-81
2021/05/03 09:42:41;;;;;;;4.88;2.50;;;;;;;;;;5048065;28;20043;-81
2021/05/03 09:45:12;;;;;;;3.90;2.28;;;;;;;;;;5048712;28;20044;-80
2021/05/03 09:47:40;;;;;;;2.22;1.77;;;;;;;;;;5047207;28;20043;-81
2021/05/03 09:50:32;;;;;;;3.38;2.72;;;;;;;;;;5047769;28;20029;-80
2021/05/03 09:53:12;;;;;;;4.82;1.98;;;;;;;;;;5029620;28;20064;-81
2021/05/03 09:55:46;;;;;;;1.67;1.58;;;;;;;;;;5048988;28;20026;-82
2021/05/03 09:58:14;;;;;;;4.53;2.20;;;;;;;;;;5047232;28;20052;-80
2021/05/03 10:00:50;;;;;;;2.80;2.08;;;;;;;;;;5048340;28;20105;-82
2021/05/03 10:03:29;;;;;;;10.82;4.43;;;;;;;;;;5047568;28;20043;-81
2021/05/03 10:05:56;;;;;;;9.23;3.42;;;;;;;;;;5048275;28;20059;-80
2021/05/03 10:08:22;;;;;;;6.05;3.92;;;;;;;;;;5047286;28;20083;-82
2021/05/03 10:10:51;;;;;;;13.50;5.53;;;;;;;;;;5048666;28;20036;-80
2021/05/03 10:13:18;;;;;;;8.68;5.15;;;;;;;;;;5046833;28;20025;-80
2021/05/03 10:15:45;;;;;;;5.55;3.67;;;;;;;;;;5048598;28;20078;-82
2021/05/03 10:18:12;;;;;;;5.13;2.85;;;;;;;;;;5028084;28;20379;-80
2021/05/03 10:20:38;;;;;;;5.00;3.17;;;;;;;;;;5044849;28;20029;-82
2021/05/03 10:23:04;;;;;;;8.05;3.38;;;;;;;;;;5046464;28;20033;-80
2021/05/03 10:25:31;;;;;;;3.08;1.98;;;;;;;;;;5021435;28;20464;-80
2021/05/03 10:27:59;;;;;;;5.03;2.28;;;;;;;;;;5047692;28;20391;-80
2021/05/03 10:30:26;;;;;;;6.82;2.35;;;;;;;;;;5039161;28;20029;-80
2021/05/03 10:32:58;;;;;;;5.50;2.45;;;;;;;;;;5040882;28;20586;-80
2021/05/03 10:35:26;;;;;;;4.23;2.43;;;;;;;;;;5041775;28;20025;-79
2021/05/03 10:37:53;;;;;;;5.68;2.47;;;;;;;;;;5037384;28;20029;-81
2021/05/03 10:40:19;;;;;;;4.60;2.83;;;;;;;;;;5016841;28;20801;-80
2021/05/03 10:43:06;;;;;;;2.25;1.98;;;;;;;;;;5029452;28;20497;-80
2021/05/03 10:48:46;;;;;;;4.10;1.83;;;;;;;;;;5035320;28;20478;-80
2021/05/03 10:51:34;;;;;;;2.63;1.95;;;;;;;;;;5038238;28;20491;-79
2021/05/03 10:54:20;;;;;;;3.65;2.42;;;;;;;;;;5035991;28;20148;-80
2021/05/03 10:56:46;;;;;;;5.00;1.70;;;;;;;;;;5036788;28;20044;-80
2021/05/03 10:59:13;;;;;;;1.95;1.55;;;;;;;;;;5037322;28;20052;-80
2021/05/03 11:01:55;;;;;;;2.95;1.45;;;;;;;;;;5016791;28;20033;-80
2021/05/03 11:04:24;;;;;;;3.30;2.10;;;;;;;;;;5034240;28;20048;-81
2021/05/03 11:06:50;;;;;;;3.83;2.08;;;;;;;;;;5036060;28;20136;-80
2021/05/03 11:09:35;;;;;;;2.08;1.90;;;;;;;;;;5037155;28;20064;-80
2021/05/03 11:12:01;;;;;;;2.13;1.40;;;;;;;;;;5020548;28;20059;-79
2021/05/03 11:14:29;;;;;;;2.47;1.85;;;;;;;;;;5034727;28;20036;-79
2021/05/03 11:17:02;;;;;;;1.70;1.60;;;;;;;;;;5037637;28;20021;-79
2021/05/03 11:22:08;;;;;;;1.73;1.33;;;;;;;;;;5037834;28;20346;-79
2021/05/03 11:32:35;;;;;;;2.50;2.15;;;;;;;;;;5029297;28;20089;-80
2021/05/03 11:38:11;;;;;;;1.40;1.23;;;;;;;;;;5039723;28;20116;-83
2021/05/03 11:46:36;;;;;;;3.90;1.90;;;;;;;;;;5038558;28;20067;-83
2021/05/03 11:49:14;;;;;;;3.00;1.60;;;;;;;;;;5039135;28;20028;-83
2021/05/03 11:51:44;;;;;;;2.22;1.33;;;;;;;;;;5022462;28;20107;-84
2021/05/03 11:54:45;;;;;;;5.32;1.70;;;;;;;;;;5038363;28;21142;-82
2021/05/03 11:57:16;;;;;;;2.42;1.88;;;;;;;;;;4992081;28;20058;-83
2021/05/03 11:59:42;;;;;;;2.38;1.90;;;;;;;;;;5030103;28;20044;-83
2021/05/03 12:02:10;;;;;;;4.57;1.60;;;;;;;;;;5038407;28;20102;-81
2021/05/03 12:04:42;;;;;;;2.08;1.80;;;;;;;;;;5033497;28;20099;-81
2021/05/03 12:07:11;;;;;;;4.60;1.80;;;;;;;;;;5031695;28;20036;-83
2021/05/03 12:09:38;;;;;;;3.95;1.90;;;;;;;;;;5017038;28;20037;-81
2021/05/03 12:12:04;;;;;;;3.85;2.17;;;;;;;;;;5019117;28;20063;-81
2021/05/03 12:14:39;;;;;;;4.07;2.03;;;;;;;;;;5016332;28;20121;-80
2021/05/03 12:17:23;;;;;;;3.15;1.88;;;;;;;;;;5022209;28;20029;-79
2021/05/03 12:19:49;;;;;;;3.88;2.30;;;;;;;;;;5038942;28;20032;-79
2021/05/03 12:22:16;;;;;;;2.97;2.10;;;;;;;;;;5040672;28;20033;-79
2021/05/03 12:24:43;;;;;;;6.20;2.08;;;;;;;;;;5035475;28;20400;-79
2021/05/03 12:27:09;;;;;;;4.60;2.15;;;;;;;;;;5024774;28;20028;-79
2021/05/03 12:29:37;;;;;;;1.58;1.48;;;;;;;;;;5034817;28;20037;-80
2021/05/03 12:32:08;;;;;;;6.78;2.03;;;;;;;;;;5032819;28;20037;-81
2021/05/03 12:34:38;;;;;;;1.70;1.55;;;;;;;;;;5034828;28;20040;-80
2021/05/03 12:37:04;;;;;;;1.70;1.60;;;;;;;;;;5036230;28;20032;-78
2021/05/03 12:39:31;;;;;;;3.65;1.73;;;;;;;;;;5038758;28;20037;-79
2021/05/03 12:42:09;;;;;;;3.33;2.15;;;;;;;;;;5040527;28;20067;-79
2021/05/03 12:44:40;;;;;;;2.17;1.48;;;;;;;;;;5037288;28;20032;-79
2021/05/03 12:47:16;;;;;;;1.75;1.50;;;;;;;;;;5040365;28;20086;-80
2021/05/03 12:49:42;;;;;;;2.20;1.65;;;;;;;;;;5039438;28;20062;-80
2021/05/03 12:52:12;;;;;;;3.47;2.10;;;;;;;;;;5039883;28;20037;-80
2021/05/03 12:54:43;;;;;;;2.05;1.67;;;;;;;;;;5038787;28;20110;-78
2021/05/03 12:57:18;;;;;;;3.33;1.77;;;;;;;;;;5039976;28;21307;-81
2021/05/03 13:00:22;;;;;;;1.27;1.17;;;;;;;;;;5040539;28;20025;-80
2021/05/03 13:02:51;;;;;;;1.40;1.20;;;;;;;;;;5030239;28;20163;-79
2021/05/03 13:05:31;;;;;;;3.38;1.23;;;;;;;;;;5036657;28;20029;-83
2021/05/03 13:08:17;;;;;;;1.83;1.60;;;;;;;;;;5036603;28;20040;-80
2021/05/03 13:11:41;;;;;;;1.63;1.52;;;;;;;;;;5038790;28;20518;-81
2021/05/03 13:22:39;;;;;;;1.63;1.52;;;;;;;;;;5038734;28;20067;-80
2021/05/03 13:25:36;;;;;;;3.47;1.25;;;;;;;;;;5036141;28;20459;-81
2021/05/03 13:28:08;;;;;;;1.08;0.95;;;;;;;;;;5037156;28;20076;-80
2021/05/03 13:30:35;;;;;;;3.60;1.40;;;;;;;;;;5037216;28;20033;-80
2021/05/03 13:33:01;;;;;;;2.75;1.35;;;;;;;;;;5037200;28;20032;-80
2021/05/03 13:35:27;;;;;;;1.65;1.13;;;;;;;;;;5028028;28;20032;-80
2021/05/03 13:37:54;;;;;;;2.42;1.75;;;;;;;;;;5035710;28;20087;-78
2021/05/03 13:40:21;;;;;;;9.18;1.98;;;;;;;;;;5037675;28;20029;-80
2021/05/03 13:42:59;;;;;;;4.53;1.70;;;;;;;;;;5037616;28;20060;-78
2021/05/03 13:45:26;;;;;;;5.43;1.60;;;;;;;;;;5034143;28;20025;-80
2021/05/03 13:47:52;;;;;;;1.75;1.50;;;;;;;;;;5039333;28;20056;-79
2021/05/03 13:50:19;;;;;;;5.03;3.47;;;;;;;;;;5038101;28;20045;-80
2021/05/03 13:52:45;;;;;;;10.50;5.97;;;;;;;;;;5041454;28;20031;-80
2021/05/03 13:55:11;;;;;;;6.65;5.65;;;;;;;;;;5036618;28;20040;-80
2021/05/03 13:57:37;;;;;;;5.55;5.05;;;;;;;;;;5037639;28;20804;-79
2021/05/03 14:00:05;;;;;;;7.63;5.80;;;;;;;;;;5037515;28;20029;-80
2021/05/03 14:02:31;;;;;;;4.68;4.13;;;;;;;;;;5038934;28;20442;-82
2021/05/03 14:04:57;;;;;;;6.70;4.32;;;;;;;;;;5020987;28;20041;-79
2021/05/03 14:07:23;;;;;;;5.32;4.00;;;;;;;;;;5041560;28;20024;-79
2021/05/03 14:09:49;;;;;;;6.90;4.30;;;;;;;;;;5042333;28;20108;-78
2021/05/03 14:12:15;;;;;;;6.25;4.43;;;;;;;;;;5026304;28;20017;-79
2021/05/03 14:14:41;;;;;;;4.70;3.40;;;;;;;;;;5041506;28;20574;-79
2021/05/03 14:17:08;;;;;;;3.25;2.78;;;;;;;;;;5042518;28;20025;-79
2021/05/03 14:19:41;;;;;;;6.65;3.70;;;;;;;;;;5041973;28;20029;-78
2021/05/03 14:22:07;;;;;;;3.75;2.10;;;;;;;;;;5043179;28;20123;-78
2021/05/03 14:24:33;;;;;;;1.67;1.55;;;;;;;;;;5040096;28;20113;-79
2021/05/03 14:27:00;;;;;;;4.18;2.50;;;;;;;;;;5040406;28;20462;-78
2021/05/03 14:29:49;;;;;;;2.83;2.08;;;;;;;;;;5040400;28;20513;-81
2021/05/03 14:33:11;;;;;;;3.80;1.75;;;;;;;;;;5041421;28;20032;-80
2021/05/03 14:35:04;;;;;;;3.58;1.60;;;;;;;;;;5029114;28;20041;-82
2021/05/03 14:37:31;;;;;;;3.28;1.95;;;;;;;;;;5040440;28;20029;-83
2021/05/03 14:39:57;;;;;;;2.60;1.95;;;;;;;;;;5038852;28;20514;-79
2021/05/03 14:42:23;;;;;;;3.90;2.15;;;;;;;;;;5033040;28;20051;-81
2021/05/03 14:44:49;;;;;;;2.60;2.30;;;;;;;;;;5041995;28;20021;-78
2021/05/03 14:47:23;;;;;;;2.10;1.95;;;;;;;;;;5040418;28;20059;-78
2021/05/03 14:49:55;;;;;;;3.08;1.33;;;;;;;;;;5039481;28;20516;-79
2021/05/03 14:53:15;;;;;;;4.13;2.55;;;;;;;;;;5039963;28;20025;-78
2021/05/03 14:55:11;;;;;;;6.97;1.77;;;;;;;;;;5028373;28;20048;-77
2021/05/03 14:57:38;;;;;;;2.28;2.08;;;;;;;;;;5040361;28;20048;-79
2021/05/03 15:00:04;;;;;;;2.58;1.83;;;;;;;;;;5046738;28;20495;-79
2021/05/03 15:02:31;;;;;;;4.10;2.15;;;;;;;;;;5040857;28;20124;-79
2021/05/03 15:04:58;;;;;;;11.05;3.80;;;;;;;;;;5049243;28;20095;-78
2021/05/03 15:07:24;;;;;;;6.70;2.60;;;;;;;;;;5046888;28;20086;-79
2021/05/03 15:09:51;;;;;;;12.20;3.00;;;;;;;;;;5043042;28;20052;-79
2021/05/03 15:12:22;;;;;;;8.15;2.40;;;;;;;;;;5044828;28;20033;-79
2021/05/03 15:22:45;;;;;;;9.23;3.45;;;;;;;;;;5043231;28;20048;-82
2021/05/03 15:25:12;;;;;;;15.00;3.58;;;;;;;;;;5045099;28;20041;-80
2021/05/03 15:30:27;;;;;;;10.52;3.85;;;;;;;;;;5045178;28;20029;-80
2021/05/03 15:35:38;;;;;;;24.92;6.35;;;;;;;;;;5040149;28;20483;-80
2021/05/03 15:38:04;;;;;;;53.08;9.15;;;;;;;;;;5050897;28;20029;-80
2021/05/03 15:40:31;;;;;;;16.52;4.72;;;;;;;;;;5048576;28;20060;-80
2021/05/03 15:42:57;;;;;;;15.32;4.57;;;;;;;;;;5051796;28;20037;-80
2021/05/03 15:45:23;;;;;;;14.23;4.63;;;;;;;;;;5049732;28;20039;-83